Time;durP1;ratioP1;P1;durP2;ratioP2;P2;SDS_P1;SDS_P2;PMS_P1;PMS_P2;Temp;Humidity;BMP_temperature;BMP_pressure;BME280_temperature;BME280_humidity;BME280_pressure;Samples;Min_cycle;Max_cycle;Signal;HPM_P1;HPM_P2
2022/11/16 00:00:03;;;;;;;5.03;4.40;;;22.40;64.90;;;;;;4979474;28;20453;-80
2022/11/16 00:02:34;;;;;;;5.50;5.00;;;22.40;64.90;;;;;;4989847;28;20505;-79
2022/11/16 00:05:02;;;;;;;5.30;4.90;;;22.40;64.90;;;;;;4984730;28;20875;-79
2022/11/16 00:07:30;;;;;;;5.47;4.97;;;22.40;64.90;;;;;;4993254;28;20468;-79
2022/11/16 00:09:58;;;;;;;5.50;5.00;;;22.40;64.90;;;;;;4977898;28;20534;-79
2022/11/16 00:12:28;;;;;;;5.40;5.00;;;22.40;64.90;;;;;;4988564;28;20459;-78
2022/11/16 00:14:56;;;;;;;5.50;5.00;;;22.40;64.90;;;;;;4985381;28;20474;-78
2022/11/16 00:17:24;;;;;;;5.07;4.67;;;22.40;64.90;;;;;;4985623;28;20465;-80
2022/11/16 00:19:52;;;;;;;5.43;5.03;;;22.40;64.90;;;;;;4993389;28;20949;-79
2022/11/16 00:22:20;;;;;;;5.57;4.93;;;22.40;64.90;;;;;;4985127;28;20455;-79
2022/11/16 00:24:48;;;;;;;4.97;4.57;;;22.40;64.90;;;;;;4992415;28;20457;-79
2022/11/16 00:27:16;;;;;;;4.67;4.27;;;22.40;64.80;;;;;;4992788;28;20810;-78
2022/11/16 00:29:46;;;;;;;5.10;4.70;;;22.40;64.80;;;;;;4979559;28;20458;-79
2022/11/16 00:32:14;;;;;;;4.83;4.43;;;22.40;64.80;;;;;;4988638;28;20544;-78
2022/11/16 00:34:42;;;;;;;5.10;4.70;;;22.40;64.80;;;;;;4988070;28;20836;-78
2022/11/16 00:37:10;;;;;;;4.60;4.30;;;22.40;64.80;;;;;;4988870;28;20468;-78
2022/11/16 00:39:39;;;;;;;5.43;5.03;;;22.40;64.90;;;;;;4986758;28;20462;-78
2022/11/16 00:42:07;;;;;;;5.00;4.60;;;22.40;64.80;;;;;;4988569;28;21251;-78
2022/11/16 00:44:35;;;;;;;4.67;4.27;;;22.40;64.80;;;;;;4980574;28;20498;-78
2022/11/16 00:47:05;;;;;;;4.23;3.90;;;22.40;64.80;;;;;;4985279;28;20485;-78
2022/11/16 00:49:33;;;;;;;5.20;4.70;;;22.40;64.80;;;;;;4987857;28;20987;-79
2022/11/16 00:52:01;;;;;;;5.20;4.80;;;22.40;64.90;;;;;;4967056;28;20811;-78
2022/11/16 00:54:29;;;;;;;5.60;4.33;;;22.40;64.80;;;;;;4974126;28;20481;-78
2022/11/16 00:56:58;;;;;;;4.27;3.97;;;22.40;64.80;;;;;;4982119;28;20900;-78
2022/11/16 00:59:26;;;;;;;4.90;4.50;;;22.40;64.90;;;;;;4972787;28;20517;-79
2022/11/16 01:01:57;;;;;;;4.53;4.23;;;22.40;64.90;;;;;;4977848;28;20504;-78
2022/11/16 01:04:27;;;;;;;5.57;5.07;;;22.40;64.80;;;;;;4973697;28;20461;-78
2022/11/16 01:06:55;;;;;;;3.83;3.53;;;22.40;64.90;;;;;;4989050;28;20524;-78
2022/11/16 01:09:25;;;;;;;5.80;5.10;;;22.40;64.90;;;;;;4990453;28;20461;-78
2022/11/16 01:12:11;;;;;;;4.20;3.80;;;22.40;64.80;;;;;;4989001;28;20453;-78
2022/11/16 01:14:41;;;;;;;5.00;4.60;;;22.40;64.90;;;;;;4979536;28;20478;-78
2022/11/16 01:17:11;;;;;;;5.23;4.83;;;22.40;64.90;;;;;;4971554;28;20923;-78
2022/11/16 01:19:41;;;;;;;4.70;4.30;;;22.40;64.90;;;;;;4985062;28;20464;-78
2022/11/16 01:22:10;;;;;;;4.50;4.17;;;22.40;64.90;;;;;;4973564;28;20462;-79
2022/11/16 01:24:38;;;;;;;4.40;4.10;;;22.40;64.90;;;;;;4989715;28;20953;-78
2022/11/16 01:27:06;;;;;;;4.50;4.10;;;22.40;64.90;;;;;;4983977;28;20485;-79
2022/11/16 01:29:36;;;;;;;3.90;3.70;;;22.40;64.80;;;;;;4987195;28;20864;-79
2022/11/16 01:32:05;;;;;;;5.13;4.73;;;22.40;64.90;;;;;;4972429;28;21343;-79
2022/11/16 01:34:34;;;;;;;4.70;4.30;;;22.40;64.80;;;;;;4970694;28;20457;-78
2022/11/16 01:37:16;;;;;;;5.23;4.83;;;22.40;64.90;;;;;;4974437;28;20462;-78
2022/11/16 01:39:45;;;;;;;5.53;4.63;;;22.40;64.80;;;;;;4973300;28;20462;-78
2022/11/16 01:42:17;;;;;;;4.30;3.90;;;22.40;64.80;;;;;;4973462;28;21321;-79
2022/11/16 01:45:01;;;;;;;4.17;3.77;;;22.40;64.80;;;;;;4980162;28;20486;-79
2022/11/16 01:47:30;;;;;;;4.80;4.50;;;22.30;64.90;;;;;;4980354;28;20482;-79
2022/11/16 01:50:06;;;;;;;5.33;4.90;;;22.40;64.90;;;;;;4975544;28;20905;-79
2022/11/16 01:52:41;;;;;;;4.00;3.60;;;22.30;64.90;;;;;;4977098;28;20533;-78
2022/11/16 01:55:11;;;;;;;4.90;4.50;;;22.30;64.90;;;;;;4983429;28;20965;-78
2022/11/16 01:57:58;;;;;;;4.40;4.10;;;22.40;64.90;;;;;;4989785;28;20568;-79
2022/11/16 02:00:27;;;;;;;4.30;4.00;;;22.30;64.80;;;;;;4969016;28;20483;-78
2022/11/16 02:03:09;;;;;;;4.90;4.50;;;22.30;64.80;;;;;;4991023;28;20554;-78
2022/11/16 02:05:56;;;;;;;4.20;3.80;;;22.30;64.80;;;;;;4986816;28;20478;-78
2022/11/16 02:11:45;;;;;;;4.27;3.97;;;22.30;64.80;;;;;;4980344;28;20520;-79
2022/11/16 02:14:25;;;;;;;4.17;3.87;;;22.30;64.80;;;;;;4969338;28;20466;-79
2022/11/16 02:17:14;;;;;;;3.93;3.63;;;22.30;64.80;;;;;;4987519;28;20572;-79
2022/11/16 02:20:15;;;;;;;4.57;4.17;;;22.30;64.90;;;;;;4985284;28;20472;-78
2022/11/16 02:23:00;;;;;;;3.80;3.57;;;22.30;64.80;;;;;;4988461;28;20477;-79
2022/11/16 02:25:38;;;;;;;4.53;4.13;;;22.30;64.80;;;;;;4987159;28;20809;-79
2022/11/16 02:28:27;;;;;;;3.73;3.43;;;22.30;64.80;;;;;;4990878;28;20469;-78
2022/11/16 02:30:59;;;;;;;4.10;3.80;;;22.30;64.80;;;;;;4991568;28;20810;-78
2022/11/16 02:33:34;;;;;;;4.17;3.77;;;22.30;64.80;;;;;;4995617;28;20457;-79
2022/11/16 02:36:07;;;;;;;4.10;3.80;;;22.30;64.80;;;;;;4989042;28;20490;-78
2022/11/16 02:38:39;;;;;;;3.80;3.50;;;22.30;64.80;;;;;;4988333;28;20501;-79
2022/11/16 02:41:11;;;;;;;3.63;3.33;;;22.30;64.80;;;;;;4988948;28;20473;-78
2022/11/16 02:43:43;;;;;;;4.10;3.80;;;22.30;64.80;;;;;;4994449;28;20482;-79
2022/11/16 02:46:22;;;;;;;4.10;3.80;;;22.30;64.80;;;;;;4976285;28;20462;-79
2022/11/16 02:48:53;;;;;;;4.37;4.07;;;22.30;64.80;;;;;;4990556;28;20576;-78
2022/11/16 02:51:24;;;;;;;4.33;4.03;;;22.30;64.80;;;;;;4965702;28;20446;-78
2022/11/16 02:54:01;;;;;;;4.20;4.00;;;22.30;64.80;;;;;;4981213;28;20938;-78
2022/11/16 02:56:41;;;;;;;3.60;3.33;;;22.30;64.80;;;;;;4983972;28;20485;-79
2022/11/16 02:59:10;;;;;;;4.10;3.80;;;22.30;64.80;;;;;;4992978;28;20545;-78
2022/11/16 03:01:51;;;;;;;4.20;3.90;;;22.30;64.80;;;;;;4986360;28;20493;-79
2022/11/16 03:04:23;;;;;;;4.10;3.80;;;22.30;64.80;;;;;;4986047;28;21272;-78
2022/11/16 03:06:53;;;;;;;3.80;3.50;;;22.30;64.80;;;;;;4990786;28;20462;-78
2022/11/16 03:09:27;;;;;;;3.67;3.47;;;22.30;64.70;;;;;;4991345;28;20960;-79
2022/11/16 03:11:58;;;;;;;3.57;3.37;;;22.30;64.80;;;;;;4976563;28;20552;-78
2022/11/16 03:14:33;;;;;;;3.70;3.50;;;22.30;64.80;;;;;;4992625;28;20481;-79
2022/11/16 03:17:05;;;;;;;3.83;3.57;;;22.30;64.80;;;;;;4991395;28;20524;-78
2022/11/16 03:19:39;;;;;;;3.77;3.47;;;22.30;64.80;;;;;;4974779;28;20821;-78
2022/11/16 03:22:14;;;;;;;3.87;3.67;;;22.30;64.80;;;;;;4975712;28;20458;-78
2022/11/16 03:24:43;;;;;;;3.73;3.43;;;22.30;64.80;;;;;;4972845;28;20486;-78
2022/11/16 03:27:25;;;;;;;3.93;3.63;;;22.20;64.80;;;;;;4974323;28;20460;-78
2022/11/16 03:30:03;;;;;;;3.93;3.63;;;22.20;64.80;;;;;;4980268;28;20463;-78
2022/11/16 03:32:38;;;;;;;4.50;4.10;;;22.20;64.80;;;;;;4974576;28;20501;-79
2022/11/16 03:35:15;;;;;;;3.80;3.50;;;22.20;64.80;;;;;;4981297;28;20474;-79
2022/11/16 03:37:46;;;;;;;4.30;4.00;;;22.20;64.80;;;;;;4992576;28;20966;-78
2022/11/16 03:40:14;;;;;;;4.80;4.40;;;22.20;64.80;;;;;;4991558;28;20473;-79
2022/11/16 03:42:45;;;;;;;3.70;3.50;;;22.20;64.90;;;;;;4991821;28;20765;-78
2022/11/16 03:45:14;;;;;;;3.33;3.13;;;22.20;64.80;;;;;;4954608;28;1115826;-79
2022/11/16 03:47:43;;;;;;;3.30;3.10;;;22.20;64.80;;;;;;4993504;28;20227;-79
2022/11/16 03:50:12;;;;;;;3.13;2.93;;;22.20;64.80;;;;;;4992867;28;20465;-78
2022/11/16 03:52:41;;;;;;;4.27;3.97;;;22.20;64.80;;;;;;4974563;28;21309;-79
2022/11/16 03:55:09;;;;;;;4.63;4.23;;;22.20;64.80;;;;;;4976911;28;20454;-79
2022/11/16 03:57:37;;;;;;;3.87;3.57;;;22.20;64.80;;;;;;4992811;28;20543;-79
2022/11/16 04:00:07;;;;;;;5.40;3.60;;;22.20;64.80;;;;;;4986036;28;20486;-79
2022/11/16 04:02:43;;;;;;;3.43;3.00;;;22.20;64.80;;;;;;4990495;28;20493;-79
2022/11/16 04:25:07;;;;;;;3.87;3.57;;;22.20;64.90;;;;;;4990736;28;20475;-78
2022/11/16 04:30:22;;;;;;;4.17;3.87;;;22.20;64.90;;;;;;4974054;28;20541;-79
2022/11/16 04:38:23;;;;;;;3.60;3.33;;;22.10;64.90;;;;;;4987077;28;20551;-78
2022/11/16 04:40:51;;;;;;;3.77;3.57;;;22.10;64.90;;;;;;4987372;28;20552;-79
2022/11/16 04:43:19;;;;;;;4.70;3.70;;;22.20;64.90;;;;;;4992863;28;20460;-78
2022/11/16 04:48:39;;;;;;;3.73;3.43;;;22.20;64.90;;;;;;4980325;28;20493;-78
2022/11/16 04:51:09;;;;;;;3.40;3.20;;;22.10;64.90;;;;;;4970432;28;20477;-78
2022/11/16 04:53:38;;;;;;;3.60;3.30;;;22.10;64.90;;;;;;4974882;28;20557;-78
2022/11/16 04:56:19;;;;;;;4.23;3.93;;;22.10;64.90;;;;;;4975205;28;20485;-79
2022/11/16 04:58:47;;;;;;;3.80;3.50;;;22.10;64.90;;;;;;4973487;28;20469;-79
2022/11/16 05:01:15;;;;;;;3.97;3.67;;;22.10;64.90;;;;;;4972159;28;21123;-78
2022/11/16 05:03:44;;;;;;;3.90;3.63;;;22.10;64.90;;;;;;4972810;28;20478;-79
2022/11/16 05:06:13;;;;;;;3.90;3.63;;;22.10;64.90;;;;;;4988019;28;20462;-79
2022/11/16 05:08:42;;;;;;;4.20;3.90;;;22.10;64.80;;;;;;4966243;28;20482;-79
2022/11/16 05:11:11;;;;;;;3.67;3.37;;;22.10;64.80;;;;;;4975654;28;21040;-79
2022/11/16 05:13:39;;;;;;;4.70;4.40;;;22.10;64.80;;;;;;4974010;28;20942;-79
2022/11/16 05:16:08;;;;;;;3.43;3.23;;;22.10;64.80;;;;;;4974868;28;20472;-80
2022/11/16 05:18:37;;;;;;;3.50;3.23;;;22.10;64.80;;;;;;4971280;28;20508;-80
2022/11/16 05:21:04;;;;;;;3.73;3.43;;;22.10;64.80;;;;;;4972657;28;20903;-81
2022/11/16 05:26:28;;;;;;;3.60;3.30;;;22.10;64.80;;;;;;4973511;28;20491;-82
2022/11/16 05:28:56;;;;;;;3.90;3.53;;;22.10;64.80;;;;;;4971990;28;20810;-81
2022/11/16 05:31:24;;;;;;;3.30;3.10;;;22.10;64.80;;;;;;4974275;28;20463;-81
2022/11/16 05:33:52;;;;;;;4.80;4.40;;;22.10;64.80;;;;;;4974978;28;20996;-81
2022/11/16 05:36:21;;;;;;;3.60;3.40;;;22.10;64.80;;;;;;4973732;28;20812;-80
2022/11/16 05:38:51;;;;;;;3.17;2.97;;;22.10;64.80;;;;;;4973353;28;20477;-80
2022/11/16 05:41:25;;;;;;;3.67;3.47;;;22.10;64.80;;;;;;4968193;28;20556;-80
2022/11/16 05:43:54;;;;;;;3.53;3.23;;;22.10;64.80;;;;;;4976817;28;20494;-79
2022/11/16 05:46:23;;;;;;;4.10;3.90;;;22.10;64.80;;;;;;4979375;28;20466;-79
2022/11/16 05:48:53;;;;;;;3.27;3.07;;;22.10;64.80;;;;;;4961326;28;20485;-79
2022/11/16 05:51:21;;;;;;;3.80;3.50;;;22.10;64.80;;;;;;4966456;28;20508;-79
2022/11/16 05:53:51;;;;;;;4.07;3.77;;;22.10;64.80;;;;;;4976253;28;20476;-79
2022/11/16 05:56:22;;;;;;;3.13;2.93;;;22.10;64.80;;;;;;4988678;28;20473;-79
2022/11/16 05:58:53;;;;;;;3.63;3.43;;;22.10;64.80;;;;;;4994043;28;20999;-79
2022/11/16 06:01:21;;;;;;;3.77;3.47;;;22.10;64.80;;;;;;4991463;28;20458;-79
2022/11/16 06:03:50;;;;;;;3.60;3.30;;;22.10;64.80;;;;;;4991814;28;20455;-79
2022/11/16 06:06:19;;;;;;;3.90;3.30;;;22.10;64.80;;;;;;4980755;28;20470;-80
2022/11/16 06:08:50;;;;;;;3.80;3.50;;;22.10;64.80;;;;;;4978628;28;20872;-79
2022/11/16 06:11:24;;;;;;;3.53;3.33;;;22.10;64.80;;;;;;4991474;28;20472;-79
2022/11/16 06:13:52;;;;;;;3.20;3.00;;;22.10;64.80;;;;;;4989583;28;20465;-79
2022/11/16 06:16:21;;;;;;;3.47;3.27;;;22.10;64.80;;;;;;4976813;28;20472;-79
2022/11/16 06:18:49;;;;;;;4.20;3.90;;;22.10;64.80;;;;;;4976308;28;20920;-80
2022/11/16 06:21:19;;;;;;;3.30;3.00;;;22.10;64.80;;;;;;4979929;28;20472;-78
2022/11/16 06:23:48;;;;;;;3.33;3.13;;;22.10;64.80;;;;;;4971522;28;20453;-79
2022/11/16 06:26:18;;;;;;;3.83;3.53;;;22.10;64.80;;;;;;4972987;28;20483;-79
2022/11/16 06:28:47;;;;;;;3.63;3.37;;;22.10;64.80;;;;;;4974696;28;20516;-79
2022/11/16 06:31:15;;;;;;;3.73;3.43;;;22.10;64.80;;;;;;4973500;28;20458;-79
2022/11/16 06:33:44;;;;;;;3.50;3.23;;;22.10;64.80;;;;;;4970181;28;20469;-79
2022/11/16 06:36:18;;;;;;;3.77;3.50;;;22.10;64.80;;;;;;4968465;28;20485;-79
2022/11/16 06:38:47;;;;;;;3.43;3.23;;;22.10;64.80;;;;;;4992885;28;20478;-79
2022/11/16 06:41:18;;;;;;;3.70;3.50;;;22.10;64.80;;;;;;4972864;28;20541;-79
2022/11/16 06:43:49;;;;;;;4.00;3.70;;;22.00;64.80;;;;;;4987846;28;20568;-79
2022/11/16 06:46:20;;;;;;;3.70;3.50;;;22.10;64.80;;;;;;4970649;28;21140;-79
2022/11/16 06:48:48;;;;;;;4.17;3.70;;;22.10;64.80;;;;;;4995202;28;20468;-80
2022/11/16 06:51:18;;;;;;;4.43;4.03;;;22.00;64.80;;;;;;4984519;28;20474;-79
2022/11/16 06:53:47;;;;;;;3.87;3.57;;;22.00;64.80;;;;;;4971539;28;20548;-79
2022/11/16 06:56:18;;;;;;;6.90;3.80;;;22.10;64.70;;;;;;4976326;28;20468;-81
2022/11/16 06:58:51;;;;;;;5.67;4.10;;;22.10;68.20;;;;;;4974419;28;20506;-80
2022/11/16 07:01:21;;;;;;;8.40;4.60;;;22.10;69.20;;;;;;4976594;28;20795;-80
2022/11/16 07:03:52;;;;;;;5.03;4.03;;;22.10;68.20;;;;;;4977132;28;20458;-80
2022/11/16 07:06:21;;;;;;;5.20;4.20;;;22.10;67.70;;;;;;4969713;28;20486;-80
2022/11/16 07:08:49;;;;;;;4.83;3.70;;;22.10;67.40;;;;;;4971329;28;20458;-80
2022/11/16 07:11:24;;;;;;;4.20;3.30;;;22.10;67.20;;;;;;4971564;28;20963;-80
2022/11/16 07:13:52;;;;;;;3.73;3.20;;;22.10;67.00;;;;;;4993424;28;20517;-80
2022/11/16 07:16:21;;;;;;;4.63;3.97;;;22.10;66.80;;;;;;4991812;28;20481;-79
2022/11/16 07:18:58;;;;;;;7.20;3.63;;;22.10;66.50;;;;;;4974985;28;20841;-81
2022/11/16 07:21:29;;;;;;;8.10;3.53;;;22.10;66.60;;;;;;4989361;28;20972;-80
2022/11/16 07:23:59;;;;;;;6.20;3.50;;;22.00;66.40;;;;;;4972051;28;20557;-80
2022/11/16 07:26:29;;;;;;;3.63;3.10;;;22.10;66.30;;;;;;4972346;28;20473;-80
2022/11/16 07:29:03;;;;;;;3.80;3.50;;;22.00;66.20;;;;;;4974675;28;20992;-80
2022/11/16 07:31:32;;;;;;;3.43;3.13;;;22.00;66.10;;;;;;4975556;28;20457;-81
2022/11/16 07:34:19;;;;;;;3.83;3.53;;;22.00;66.10;;;;;;4986398;28;20906;-80
2022/11/16 07:36:53;;;;;;;4.57;3.60;;;22.00;65.90;;;;;;4971163;28;20560;-80
2022/11/16 07:39:21;;;;;;;3.50;3.20;;;22.00;65.80;;;;;;4981754;28;20510;-80
2022/11/16 07:41:52;;;;;;;3.53;3.23;;;22.00;65.70;;;;;;4968448;28;21011;-81
2022/11/16 07:44:45;;;;;;;3.70;3.17;;;22.00;65.60;;;;;;4973558;28;20488;-80
2022/11/16 07:47:14;;;;;;;4.60;4.30;;;22.00;65.50;;;;;;4969173;28;20816;-80
2022/11/16 07:49:42;;;;;;;3.50;3.23;;;22.00;65.30;;;;;;4969851;28;20469;-80
2022/11/16 07:52:14;;;;;;;3.50;3.20;;;22.00;65.30;;;;;;4974675;28;20457;-80
2022/11/16 07:54:56;;;;;;;3.57;3.27;;;22.00;65.20;;;;;;4980393;28;20537;-81
2022/11/16 07:57:28;;;;;;;3.10;2.90;;;22.00;65.10;;;;;;4962770;28;20467;-80
2022/11/16 08:00:00;;;;;;;4.90;3.20;;;22.00;65.00;;;;;;4971390;28;20553;-80
2022/11/16 08:02:40;;;;;;;4.30;3.33;;;22.00;64.90;;;;;;4990263;28;21115;-80
2022/11/16 08:05:13;;;;;;;3.50;3.20;;;22.00;64.80;;;;;;4970110;28;20481;-79
2022/11/16 08:07:42;;;;;;;3.40;3.10;;;22.00;64.80;;;;;;4975992;28;20468;-80
2022/11/16 08:10:10;;;;;;;3.80;3.40;;;22.00;64.70;;;;;;4990183;28;20501;-78
2022/11/16 08:12:41;;;;;;;3.73;3.43;;;22.00;64.80;;;;;;4974838;28;20473;-82
2022/11/16 08:15:12;;;;;;;5.53;3.33;;;22.00;65.20;;;;;;4993084;28;20453;-81
2022/11/16 08:17:41;;;;;;;4.60;3.00;;;22.00;65.40;;;;;;4989595;28;20556;-82
2022/11/16 08:20:12;;;;;;;3.10;2.87;;;22.00;65.60;;;;;;4974441;28;20551;-76
2022/11/16 08:22:41;;;;;;;3.90;3.50;;;22.00;65.90;;;;;;4986485;28;20463;-80
2022/11/16 08:25:10;;;;;;;5.47;4.70;;;22.10;65.90;;;;;;4972778;28;20473;-79
2022/11/16 08:27:43;;;;;;;3.37;3.10;;;22.10;65.80;;;;;;4990356;28;20520;-79
2022/11/16 08:30:12;;;;;;;3.40;3.10;;;22.10;65.90;;;;;;4983609;28;20474;-80
2022/11/16 08:32:41;;;;;;;3.30;2.63;;;22.10;66.00;;;;;;4972548;28;20468;-80
2022/11/16 08:35:10;;;;;;;3.97;3.00;;;22.10;66.00;;;;;;4969795;28;20508;-81
2022/11/16 08:37:39;;;;;;;2.90;2.70;;;22.10;66.00;;;;;;4975789;28;20564;-79
2022/11/16 08:40:09;;;;;;;3.57;2.83;;;22.10;66.00;;;;;;4974518;28;20476;-80
2022/11/16 08:42:39;;;;;;;3.00;2.47;;;22.10;66.00;;;;;;4981541;28;20467;-83
2022/11/16 08:45:12;;;;;;;3.97;3.60;;;22.20;65.90;;;;;;4975661;28;20548;-80
2022/11/16 08:47:41;;;;;;;4.50;3.10;;;22.20;65.80;;;;;;4975979;28;20521;-80
2022/11/16 08:50:10;;;;;;;2.77;2.57;;;22.20;65.70;;;;;;4989072;28;20489;-81
2022/11/16 08:52:38;;;;;;;8.23;3.60;;;22.20;65.70;;;;;;4989681;28;20560;-79
2022/11/16 08:55:09;;;;;;;3.03;2.83;;;22.20;65.70;;;;;;4975644;28;20516;-80
2022/11/16 08:57:37;;;;;;;3.67;3.27;;;22.30;65.60;;;;;;4970528;28;20512;-80
2022/11/16 09:00:12;;;;;;;3.03;2.60;;;22.30;65.50;;;;;;4972220;28;20499;-79
2022/11/16 09:02:40;;;;;;;3.60;3.30;;;22.30;65.40;;;;;;4993282;28;20495;-80
2022/11/16 09:05:10;;;;;;;4.00;2.90;;;22.40;65.30;;;;;;4988047;28;20451;-79
2022/11/16 09:07:39;;;;;;;3.00;2.80;;;22.30;65.30;;;;;;4989645;28;20480;-79
2022/11/16 09:10:08;;;;;;;2.70;2.60;;;22.40;65.00;;;;;;4987653;28;20463;-81
2022/11/16 09:12:37;;;;;;;3.03;2.50;;;22.40;64.80;;;;;;4990707;28;20441;-80
2022/11/16 09:15:06;;;;;;;3.37;3.13;;;22.40;64.80;;;;;;4988540;28;20475;-79
2022/11/16 09:17:36;;;;;;;3.03;2.60;;;22.40;64.80;;;;;;4988040;28;21030;-80
2022/11/16 09:20:05;;;;;;;2.90;2.70;;;22.40;64.70;;;;;;4983656;28;20996;-80
2022/11/16 09:22:34;;;;;;;3.00;2.70;;;22.40;64.70;;;;;;4987196;28;20472;-80
2022/11/16 09:25:02;;;;;;;2.90;2.70;;;22.50;64.60;;;;;;4989355;28;20454;-80
2022/11/16 09:27:31;;;;;;;3.50;3.30;;;22.50;64.50;;;;;;4989675;28;20479;-80
2022/11/16 09:29:59;;;;;;;3.00;2.80;;;22.50;64.40;;;;;;4989496;28;20450;-80
2022/11/16 09:32:27;;;;;;;3.07;2.87;;;22.50;64.40;;;;;;4986042;28;20537;-80
2022/11/16 09:34:57;;;;;;;3.03;2.80;;;22.50;64.30;;;;;;4989490;28;20450;-81
2022/11/16 09:37:25;;;;;;;2.30;2.10;;;22.50;64.40;;;;;;4990157;28;20537;-81
2022/11/16 09:39:54;;;;;;;2.57;2.37;;;22.50;64.30;;;;;;4989466;28;20474;-82
2022/11/16 09:42:35;;;;;;;2.47;2.10;;;22.50;64.30;;;;;;4994592;28;20514;-81
2022/11/16 09:45:07;;;;;;;3.00;2.80;;;22.60;64.30;;;;;;4988437;28;20496;-78
2022/11/16 09:47:47;;;;;;;2.67;2.47;;;22.60;64.20;;;;;;4985994;28;20981;-81
2022/11/16 09:50:27;;;;;;;2.73;2.47;;;22.60;64.10;;;;;;4985868;28;20463;-81
2022/11/16 09:52:59;;;;;;;2.00;1.90;;;22.70;64.00;;;;;;4981690;28;20538;-80
2022/11/16 09:55:33;;;;;;;1.83;1.73;;;22.70;64.00;;;;;;4989644;28;20541;-76
2022/11/16 09:58:07;;;;;;;3.27;2.37;;;22.70;64.00;;;;;;4986564;28;20547;-83
2022/11/16 10:00:37;;;;;;;3.03;2.43;;;22.70;64.10;;;;;;4987768;28;21017;-85
2022/11/16 10:03:06;;;;;;;3.20;2.70;;;22.80;64.00;;;;;;4989966;28;20517;-83
2022/11/16 10:05:43;;;;;;;2.67;2.50;;;22.80;63.90;;;;;;4991237;28;20448;-86
2022/11/16 10:08:18;;;;;;;2.90;2.70;;;22.80;63.70;;;;;;4989303;28;20877;-83
2022/11/16 10:10:56;;;;;;;3.67;2.50;;;22.90;63.60;;;;;;4987430;28;20534;-85
2022/11/16 10:13:42;;;;;;;2.33;2.13;;;22.90;63.50;;;;;;4983429;28;20478;-85
2022/11/16 10:16:18;;;;;;;2.03;1.93;;;22.90;63.40;;;;;;4979187;28;20555;-84
2022/11/16 10:18:53;;;;;;;2.23;2.10;;;22.90;63.30;;;;;;4990578;28;20550;-81
2022/11/16 10:21:36;;;;;;;3.50;2.20;;;22.90;63.10;;;;;;4990914;28;20465;-82
2022/11/16 10:24:28;;;;;;;2.20;2.10;;;22.90;63.20;;;;;;4984499;28;20839;-83
2022/11/16 10:27:10;;;;;;;2.80;2.60;;;22.90;63.30;;;;;;4990616;28;20865;-83
2022/11/16 10:29:48;;;;;;;2.50;2.30;;;23.00;63.30;;;;;;4985456;28;20868;-76
2022/11/16 10:32:24;;;;;;;2.90;2.70;;;23.10;63.10;;;;;;4989406;28;20453;-77
2022/11/16 10:34:55;;;;;;;2.30;2.10;;;23.10;62.80;;;;;;4991825;28;20807;-77
2022/11/16 10:37:30;;;;;;;8.43;2.53;;;23.20;62.70;;;;;;4986734;28;20449;-77
2022/11/16 10:39:59;;;;;;;2.87;2.67;;;23.20;62.50;;;;;;4992304;28;20473;-78
2022/11/16 10:42:38;;;;;;;3.70;2.80;;;23.20;62.50;;;;;;4986961;28;20441;-77
2022/11/16 10:45:19;;;;;;;2.33;2.03;;;23.20;62.50;;;;;;4989362;28;20487;-78
2022/11/16 10:47:53;;;;;;;2.27;2.17;;;23.20;62.70;;;;;;4985739;28;20520;-77
2022/11/16 10:50:35;;;;;;;2.23;2.03;;;23.10;62.70;;;;;;4993368;28;20487;-77
2022/11/16 10:53:04;;;;;;;2.00;1.90;;;23.10;62.70;;;;;;4986703;28;20508;-76
2022/11/16 10:55:32;;;;;;;2.43;2.10;;;23.10;62.80;;;;;;4972087;28;20823;-77
2022/11/16 10:58:03;;;;;;;2.10;1.90;;;23.10;62.90;;;;;;4989715;28;20522;-77
2022/11/16 11:00:42;;;;;;;2.50;2.30;;;23.10;63.00;;;;;;4970707;28;20831;-76
2022/11/16 11:03:10;;;;;;;2.03;1.93;;;23.00;63.10;;;;;;4983897;28;20463;-77
2022/11/16 11:05:49;;;;;;;1.90;1.73;;;23.00;63.10;;;;;;4983186;28;20557;-76
2022/11/16 11:08:29;;;;;;;2.10;1.90;;;23.00;63.20;;;;;;4985602;28;20452;-75
2022/11/16 11:11:02;;;;;;;2.50;2.30;;;23.00;63.30;;;;;;4983342;28;20482;-76
2022/11/16 11:13:33;;;;;;;5.97;1.97;;;22.90;63.20;;;;;;4966671;28;20528;-76
2022/11/16 11:16:16;;;;;;;2.87;2.57;;;22.90;63.30;;;;;;4985708;28;20490;-76
2022/11/16 11:18:46;;;;;;;5.10;2.20;;;22.90;63.30;;;;;;4986341;28;20452;-75
2022/11/16 11:21:19;;;;;;;3.93;3.63;;;22.90;63.40;;;;;;4984081;28;20509;-75
2022/11/16 11:23:51;;;;;;;3.20;2.00;;;22.90;63.40;;;;;;4986986;28;20515;-76
2022/11/16 11:26:31;;;;;;;3.60;2.60;;;22.90;63.50;;;;;;4981346;28;20469;-76
2022/11/16 11:29:16;;;;;;;2.70;2.47;;;22.90;63.60;;;;;;4983658;28;20468;-75
2022/11/16 11:31:47;;;;;;;3.23;2.33;;;22.80;63.60;;;;;;4982759;28;20467;-76
2022/11/16 11:34:19;;;;;;;2.50;2.30;;;22.80;63.70;;;;;;4986960;28;20463;-76
2022/11/16 11:36:50;;;;;;;2.53;2.20;;;22.80;63.70;;;;;;4983117;28;20459;-76
2022/11/16 11:39:32;;;;;;;2.57;2.10;;;22.80;63.80;;;;;;4990535;28;20459;-76
2022/11/16 11:42:06;;;;;;;3.60;2.40;;;22.80;63.80;;;;;;4984780;28;20496;-76
2022/11/16 11:44:48;;;;;;;2.40;2.20;;;22.80;63.80;;;;;;4982355;28;20516;-76
2022/11/16 11:47:37;;;;;;;2.67;2.47;;;22.80;63.90;;;;;;4977840;28;20582;-76
2022/11/16 11:50:35;;;;;;;2.47;2.10;;;22.80;63.90;;;;;;4984999;28;20486;-76
2022/11/16 11:53:07;;;;;;;5.03;3.83;;;22.80;63.90;;;;;;4983480;28;20461;-76
2022/11/16 11:55:37;;;;;;;4.00;2.47;;;22.80;63.80;;;;;;4984143;28;20619;-77
2022/11/16 11:58:11;;;;;;;2.10;2.00;;;22.80;63.80;;;;;;4983860;28;20794;-78
2022/11/16 12:00:48;;;;;;;6.17;2.40;;;22.80;63.80;;;;;;4984647;28;20565;-77
2022/11/16 12:03:49;;;;;;;5.67;2.33;;;22.80;63.80;;;;;;4982866;28;20493;-75
2022/11/16 12:06:28;;;;;;;5.17;2.27;;;22.80;64.00;;;;;;4980709;28;20461;-77
2022/11/16 12:09:20;;;;;;;2.83;2.10;;;22.80;64.30;;;;;;4985819;28;20459;-81
2022/11/16 12:12:05;;;;;;;5.70;2.20;;;22.80;64.40;;;;;;4981639;28;20962;-77
2022/11/16 12:15:10;;;;;;;2.50;2.30;;;22.90;64.50;;;;;;4989255;28;20449;-76
2022/11/16 12:17:49;;;;;;;2.80;2.13;;;22.90;64.50;;;;;;4989944;28;20452;-73
2022/11/16 12:20:30;;;;;;;1.67;1.57;;;23.00;64.60;;;;;;4987080;28;20494;-77
2022/11/16 12:23:27;;;;;;;2.30;1.90;;;23.10;64.40;;;;;;4989153;28;20950;-75
2022/11/16 12:26:02;;;;;;;9.40;2.00;;;23.20;64.10;;;;;;4987441;28;20504;-75
2022/11/16 12:28:49;;;;;;;1.83;1.70;;;23.30;64.00;;;;;;4985918;28;21022;-76
2022/11/16 12:31:51;;;;;;;2.40;1.90;;;23.30;63.90;;;;;;4981756;28;20453;-75
2022/11/16 12:34:31;;;;;;;2.53;2.33;;;23.30;64.00;;;;;;4943944;28;20497;-78
2022/11/16 12:37:05;;;;;;;1.90;1.80;;;23.30;64.10;;;;;;4979493;28;20550;-79
2022/11/16 12:39:35;;;;;;;1.77;1.67;;;23.20;64.40;;;;;;4977556;28;20559;-78
2022/11/16 12:42:23;;;;;;;3.30;1.67;;;23.20;64.40;;;;;;4986512;28;20479;-77
2022/11/16 12:45:17;;;;;;;2.10;1.87;;;23.20;64.40;;;;;;4980816;28;20535;-82
2022/11/16 12:48:08;;;;;;;1.97;1.70;;;23.20;64.60;;;;;;4983479;28;20549;-75
2022/11/16 12:50:53;;;;;;;1.90;1.80;;;23.10;64.70;;;;;;4978505;28;20476;-76
2022/11/16 12:53:42;;;;;;;2.63;1.90;;;23.10;64.90;;;;;;4983505;28;20449;-77
2022/11/16 12:56:16;;;;;;;1.80;1.70;;;23.10;64.90;;;;;;4984202;28;20556;-77
2022/11/16 12:59:03;;;;;;;2.43;1.70;;;23.10;64.90;;;;;;4985267;28;20560;-75
2022/11/16 13:01:37;;;;;;;2.57;2.07;;;23.10;65.00;;;;;;4988417;28;20474;-77
2022/11/16 13:04:10;;;;;;;2.53;1.90;;;23.10;65.00;;;;;;4988741;28;20473;-77
2022/11/16 13:06:42;;;;;;;1.93;1.60;;;23.10;65.00;;;;;;4983845;28;20555;-78
2022/11/16 13:09:15;;;;;;;3.90;1.93;;;23.10;65.00;;;;;;4986648;28;20992;-77
2022/11/16 13:11:47;;;;;;;3.60;2.17;;;23.10;64.90;;;;;;4986931;28;20550;-76
2022/11/16 13:14:20;;;;;;;2.07;1.90;;;23.10;64.90;;;;;;4985974;28;20930;-77
2022/11/16 13:16:51;;;;;;;2.70;1.57;;;23.10;64.90;;;;;;4986819;28;20459;-79
2022/11/16 13:19:19;;;;;;;3.23;1.60;;;23.10;64.90;;;;;;4985845;28;20457;-79
2022/11/16 13:21:55;;;;;;;5.13;1.87;;;23.10;64.90;;;;;;4986669;28;20468;-77
2022/11/16 13:24:34;;;;;;;4.03;1.87;;;23.10;65.00;;;;;;4989452;28;20526;-80
2022/11/16 13:27:16;;;;;;;2.40;1.83;;;23.10;64.90;;;;;;4988376;28;21003;-79
2022/11/16 13:29:52;;;;;;;2.00;1.80;;;23.10;64.90;;;;;;4984156;28;20462;-79
2022/11/16 13:32:29;;;;;;;2.30;1.73;;;23.10;64.90;;;;;;4984861;28;20464;-78
2022/11/16 13:34:58;;;;;;;3.27;1.80;;;23.10;64.70;;;;;;4986751;28;20451;-78
2022/11/16 13:37:47;;;;;;;2.60;1.70;;;23.10;64.60;;;;;;4989905;28;20469;-78
2022/11/16 13:40:27;;;;;;;1.83;1.53;;;23.10;64.70;;;;;;4987435;28;20463;-77
2022/11/16 13:43:14;;;;;;;4.17;2.13;;;23.10;64.70;;;;;;4989324;28;20558;-77
2022/11/16 13:45:50;;;;;;;1.40;1.30;;;23.20;64.70;;;;;;4986568;28;20444;-79
2022/11/16 13:48:24;;;;;;;2.17;1.87;;;23.20;64.70;;;;;;4988907;28;20493;-79
2022/11/16 13:50:54;;;;;;;2.13;1.93;;;23.30;64.70;;;;;;4991488;28;21023;-81
2022/11/16 13:53:25;;;;;;;2.53;1.80;;;23.30;64.40;;;;;;4984177;28;20489;-76
2022/11/16 13:56:15;;;;;;;5.13;2.20;;;23.30;64.30;;;;;;4984087;28;20465;-87